Alkabo, North Dakota
Current Conditions -  °F | °C
As of 4:14 PM on Tuesday 25 Nov 2014 (Local Time) from KISN Reporting Station
Light Snow Light Snow  
Wind Chill: 16°   Ceiling: 1400
Heat Index: 30°   Visibility: 5mi
Dew Point: 25°   Wind: 24mph
Humidity: 82%   Direction: 360°N
Pressure: 29.81"   Gusts: NA
Location:  48.5901°N, 103.922°W
Report Text: KISN 252214Z AUTO 36021KT 5SM -SN SCT011 BKN014 OVC040 M01/M04 A2981 RMK AO2 PK WND 36026/2212 SNB09 PRESRR P0000 T10111039
Loading
Personal Weather Stations






























Interactive Weather Map New forecast layout! Learn more

10-Day Weather Forecast

Advertisements
Track Severe Weather on mobile